sensor_id;sensor_type;location;lat;lon;timestamp;temperature;humidity
3756;DHT22;1893;52.526;13.360;2022-10-16T00:01:25;15.60;99.90
3756;DHT22;1893;52.526;13.360;2022-10-16T00:03:52;15.60;99.90
3756;DHT22;1893;52.526;13.360;2022-10-16T00:06:19;15.60;99.90
3756;DHT22;1893;52.526;13.360;2022-10-16T00:08:45;15.60;99.90
3756;DHT22;1893;52.526;13.360;2022-10-16T00:11:16;15.60;99.90
3756;DHT22;1893;52.526;13.360;2022-10-16T00:13:43;15.70;99.90
3756;DHT22;1893;52.526;13.360;2022-10-16T00:16:10;15.70;99.90
3756;DHT22;1893;52.526;13.360;2022-10-16T00:18:36;15.70;99.90
3756;DHT22;1893;52.526;13.360;2022-10-16T00:21:13;15.70;99.90
3756;DHT22;1893;52.526;13.360;2022-10-16T00:23:40;15.70;99.90
3756;DHT22;1893;52.526;13.360;2022-10-16T00:26:08;15.70;99.90
3756;DHT22;1893;52.526;13.360;2022-10-16T00:28:35;15.70;99.90
3756;DHT22;1893;52.526;13.360;2022-10-16T00:31:06;15.70;99.90
3756;DHT22;1893;52.526;13.360;2022-10-16T00:33:33;15.70;99.90
3756;DHT22;1893;52.526;13.360;2022-10-16T00:35:59;15.70;99.90
3756;DHT22;1893;52.526;13.360;2022-10-16T00:38:25;15.70;99.90
3756;DHT22;1893;52.526;13.360;2022-10-16T00:40:50;15.70;99.90
3756;DHT22;1893;52.526;13.360;2022-10-16T00:46:05;15.80;99.90
3756;DHT22;1893;52.526;13.360;2022-10-16T00:48:31;15.80;99.90
3756;DHT22;1893;52.526;13.360;2022-10-16T00:50:58;15.80;99.90
3756;DHT22;1893;52.526;13.360;2022-10-16T00:53:25;15.80;99.90
3756;DHT22;1893;52.526;13.360;2022-10-16T00:55:51;15.70;99.90
3756;DHT22;1893;52.526;13.360;2022-10-16T00:58:17;15.70;99.90
3756;DHT22;1893;52.526;13.360;2022-10-16T01:00:42;15.80;99.90
3756;DHT22;1893;52.526;13.360;2022-10-16T01:03:28;15.70;99.90
3756;DHT22;1893;52.526;13.360;2022-10-16T01:06:09;15.70;99.90
3756;DHT22;1893;52.526;13.360;2022-10-16T01:11:30;15.70;99.90
3756;DHT22;1893;52.526;13.360;2022-10-16T01:14:02;15.80;99.90
3756;DHT22;1893;52.526;13.360;2022-10-16T01:16:49;15.70;99.90
3756;DHT22;1893;52.526;13.360;2022-10-16T01:19:25;15.70;99.90
3756;DHT22;1893;52.526;13.360;2022-10-16T01:21:53;15.70;99.90
3756;DHT22;1893;52.526;13.360;2022-10-16T01:29:58;15.70;99.90
3756;DHT22;1893;52.526;13.360;2022-10-16T01:32:43;15.70;99.90
3756;DHT22;1893;52.526;13.360;2022-10-16T01:35:25;15.60;99.90
3756;DHT22;1893;52.526;13.360;2022-10-16T01:38:10;15.70;99.90
3756;DHT22;1893;52.526;13.360;2022-10-16T01:40:39;15.70;99.90
3756;DHT22;1893;52.526;13.360;2022-10-16T01:43:09;15.70;99.90
3756;DHT22;1893;52.526;13.360;2022-10-16T01:45:36;15.70;99.90
3756;DHT22;1893;52.526;13.360;2022-10-16T01:48:04;15.70;99.90
3756;DHT22;1893;52.526;13.360;2022-10-16T01:50:37;15.70;99.90
3756;DHT22;1893;52.526;13.360;2022-10-16T01:53:05;15.60;99.90
3756;DHT22;1893;52.526;13.360;2022-10-16T01:55:35;15.70;99.90
3756;DHT22;1893;52.526;13.360;2022-10-16T01:58:03;15.60;99.90
3756;DHT22;1893;52.526;13.360;2022-10-16T02:00:30;15.60;99.90
3756;DHT22;1893;52.526;13.360;2022-10-16T02:02:57;15.70;99.90
3756;DHT22;1893;52.526;13.360;2022-10-16T02:05:34;15.70;99.90
3756;DHT22;1893;52.526;13.360;2022-10-16T02:08:03;15.70;99.90
3756;DHT22;1893;52.526;13.360;2022-10-16T02:10:29;15.60;99.90
3756;DHT22;1893;52.526;13.360;2022-10-16T02:13:26;15.60;99.90
3756;DHT22;1893;52.526;13.360;2022-10-16T02:15:52;15.60;99.90
3756;DHT22;1893;52.526;13.360;2022-10-16T02:18:18;15.60;99.90
3756;DHT22;1893;52.526;13.360;2022-10-16T02:21:01;15.60;99.90
3756;DHT22;1893;52.526;13.360;2022-10-16T02:23:35;15.70;99.90
3756;DHT22;1893;52.526;13.360;2022-10-16T02:26:04;15.60;99.90
3756;DHT22;1893;52.526;13.360;2022-10-16T02:28:42;15.60;99.90
3756;DHT22;1893;52.526;13.360;2022-10-16T02:31:11;15.60;99.90
3756;DHT22;1893;52.526;13.360;2022-10-16T02:33:39;15.60;99.90
3756;DHT22;1893;52.526;13.360;2022-10-16T02:36:05;15.60;99.90
3756;DHT22;1893;52.526;13.360;2022-10-16T02:38:32;15.60;99.90
3756;DHT22;1893;52.526;13.360;2022-10-16T02:40:58;15.60;99.90
3756;DHT22;1893;52.526;13.360;2022-10-16T02:43:25;15.60;99.90
3756;DHT22;1893;52.526;13.360;2022-10-16T02:45:51;15.60;99.90
3756;DHT22;1893;52.526;13.360;2022-10-16T02:48:16;15.60;99.90
3756;DHT22;1893;52.526;13.360;2022-10-16T02:50:42;15.60;99.90
3756;DHT22;1893;52.526;13.360;2022-10-16T02:53:07;15.50;99.90
3756;DHT22;1893;52.526;13.360;2022-10-16T02:55:33;15.50;99.90
3756;DHT22;1893;52.526;13.360;2022-10-16T02:57:58;15.50;99.90
3756;DHT22;1893;52.526;13.360;2022-10-16T03:00:24;15.50;99.90
3756;DHT22;1893;52.526;13.360;2022-10-16T03:02:50;15.50;99.90
3756;DHT22;1893;52.526;13.360;2022-10-16T03:05:15;15.40;99.90
3756;DHT22;1893;52.526;13.360;2022-10-16T03:07:41;15.40;99.90
3756;DHT22;1893;52.526;13.360;2022-10-16T03:10:07;15.30;99.90
3756;DHT22;1893;52.526;13.360;2022-10-16T03:12:33;15.30;99.90
3756;DHT22;1893;52.526;13.360;2022-10-16T03:14:59;15.30;99.90
3756;DHT22;1893;52.526;13.360;2022-10-16T03:17:24;15.30;99.90
3756;DHT22;1893;52.526;13.360;2022-10-16T03:19:50;15.20;99.90
3756;DHT22;1893;52.526;13.360;2022-10-16T03:22:16;15.20;99.90
3756;DHT22;1893;52.526;13.360;2022-10-16T03:24:41;15.20;99.90
3756;DHT22;1893;52.526;13.360;2022-10-16T03:27:07;15.10;99.90
3756;DHT22;1893;52.526;13.360;2022-10-16T03:29:32;15.10;99.90
3756;DHT22;1893;52.526;13.360;2022-10-16T03:31:58;15.00;99.90
3756;DHT22;1893;52.526;13.360;2022-10-16T03:34:24;15.00;99.90
3756;DHT22;1893;52.526;13.360;2022-10-16T03:36:50;15.00;99.90
3756;DHT22;1893;52.526;13.360;2022-10-16T03:39:16;14.90;99.90
3756;DHT22;1893;52.526;13.360;2022-10-16T03:41:42;14.90;99.90
3756;DHT22;1893;52.526;13.360;2022-10-16T03:44:07;14.90;99.90
3756;DHT22;1893;52.526;13.360;2022-10-16T03:46:33;14.90;99.90
3756;DHT22;1893;52.526;13.360;2022-10-16T03:48:58;14.80;99.90
3756;DHT22;1893;52.526;13.360;2022-10-16T03:51:24;14.80;99.90
3756;DHT22;1893;52.526;13.360;2022-10-16T03:53:49;14.80;99.90
3756;DHT22;1893;52.526;13.360;2022-10-16T03:56:15;14.80;99.90
3756;DHT22;1893;52.526;13.360;2022-10-16T03:58:40;14.80;99.90
3756;DHT22;1893;52.526;13.360;2022-10-16T04:01:06;14.80;99.90
3756;DHT22;1893;52.526;13.360;2022-10-16T04:03:31;14.80;99.90
3756;DHT22;1893;52.526;13.360;2022-10-16T04:05:57;14.80;99.90
3756;DHT22;1893;52.526;13.360;2022-10-16T04:08:23;14.80;99.90
3756;DHT22;1893;52.526;13.360;2022-10-16T04:10:48;14.80;99.90
3756;DHT22;1893;52.526;13.360;2022-10-16T04:13:14;14.80;99.90
3756;DHT22;1893;52.526;13.360;2022-10-16T04:15:39;14.80;99.90
3756;DHT22;1893;52.526;13.360;2022-10-16T04:18:05;14.80;99.90
3756;DHT22;1893;52.526;13.360;2022-10-16T04:20:31;14.80;99.90
3756;DHT22;1893;52.526;13.360;2022-10-16T04:22:57;14.80;99.90
3756;DHT22;1893;52.526;13.360;2022-10-16T04:25:22;14.80;99.90
3756;DHT22;1893;52.526;13.360;2022-10-16T04:27:48;14.80;99.90
3756;DHT22;1893;52.526;13.360;2022-10-16T04:30:13;14.80;99.90
3756;DHT22;1893;52.526;13.360;2022-10-16T04:32:39;14.80;99.90
3756;DHT22;1893;52.526;13.360;2022-10-16T04:35:05;14.80;99.90
3756;DHT22;1893;52.526;13.360;2022-10-16T04:37:31;14.80;99.90
3756;DHT22;1893;52.526;13.360;2022-10-16T04:39:57;14.80;99.90
3756;DHT22;1893;52.526;13.360;2022-10-16T04:42:22;14.70;99.90
3756;DHT22;1893;52.526;13.360;2022-10-16T04:44:48;14.80;99.90
3756;DHT22;1893;52.526;13.360;2022-10-16T04:47:13;14.70;99.90
3756;DHT22;1893;52.526;13.360;2022-10-16T04:49:39;14.70;99.90
3756;DHT22;1893;52.526;13.360;2022-10-16T04:52:04;14.70;99.90
3756;DHT22;1893;52.526;13.360;2022-10-16T04:54:30;14.60;99.90
3756;DHT22;1893;52.526;13.360;2022-10-16T04:56:56;14.60;99.90
3756;DHT22;1893;52.526;13.360;2022-10-16T04:59:21;14.60;99.90
3756;DHT22;1893;52.526;13.360;2022-10-16T05:01:47;14.60;99.90
3756;DHT22;1893;52.526;13.360;2022-10-16T05:04:13;14.60;99.90
3756;DHT22;1893;52.526;13.360;2022-10-16T05:06:40;14.50;99.90
3756;DHT22;1893;52.526;13.360;2022-10-16T05:09:06;14.50;99.90
3756;DHT22;1893;52.526;13.360;2022-10-16T05:11:32;14.50;99.90
3756;DHT22;1893;52.526;13.360;2022-10-16T05:13:58;14.40;99.90
3756;DHT22;1893;52.526;13.360;2022-10-16T05:16:23;14.50;99.90
3756;DHT22;1893;52.526;13.360;2022-10-16T05:18:49;14.40;99.90
3756;DHT22;1893;52.526;13.360;2022-10-16T05:21:14;14.50;99.90
3756;DHT22;1893;52.526;13.360;2022-10-16T05:23:40;14.50;99.90
3756;DHT22;1893;52.526;13.360;2022-10-16T05:26:06;14.50;99.90
3756;DHT22;1893;52.526;13.360;2022-10-16T05:28:31;14.50;99.90
3756;DHT22;1893;52.526;13.360;2022-10-16T05:30:57;14.50;99.90
3756;DHT22;1893;52.526;13.360;2022-10-16T05:33:24;14.50;99.90
3756;DHT22;1893;52.526;13.360;2022-10-16T05:35:50;14.50;99.90
3756;DHT22;1893;52.526;13.360;2022-10-16T05:38:17;14.50;99.90
3756;DHT22;1893;52.526;13.360;2022-10-16T05:40:44;14.40;99.90
3756;DHT22;1893;52.526;13.360;2022-10-16T05:43:15;14.40;99.90
3756;DHT22;1893;52.526;13.360;2022-10-16T05:45:40;14.50;99.90
3756;DHT22;1893;52.526;13.360;2022-10-16T05:48:06;14.50;99.90
3756;DHT22;1893;52.526;13.360;2022-10-16T05:50:32;14.50;99.90
3756;DHT22;1893;52.526;13.360;2022-10-16T05:52:57;14.50;99.90
3756;DHT22;1893;52.526;13.360;2022-10-16T05:55:23;14.50;99.90
3756;DHT22;1893;52.526;13.360;2022-10-16T05:57:48;14.50;99.90
3756;DHT22;1893;52.526;13.360;2022-10-16T06:00:14;14.50;99.90
3756;DHT22;1893;52.526;13.360;2022-10-16T06:02:39;14.50;99.90
3756;DHT22;1893;52.526;13.360;2022-10-16T06:05:05;14.50;99.90
3756;DHT22;1893;52.526;13.360;2022-10-16T06:07:34;14.40;99.90
3756;DHT22;1893;52.526;13.360;2022-10-16T06:10:00;14.40;99.90
3756;DHT22;1893;52.526;13.360;2022-10-16T06:12:26;14.40;99.90
3756;DHT22;1893;52.526;13.360;2022-10-16T06:14:52;14.50;99.90
3756;DHT22;1893;52.526;13.360;2022-10-16T06:17:18;14.50;99.90
3756;DHT22;1893;52.526;13.360;2022-10-16T06:19:43;14.50;99.90
3756;DHT22;1893;52.526;13.360;2022-10-16T06:22:09;14.50;99.90
3756;DHT22;1893;52.526;13.360;2022-10-16T06:24:35;14.50;99.90
3756;DHT22;1893;52.526;13.360;2022-10-16T06:27:00;14.60;99.90
3756;DHT22;1893;52.526;13.360;2022-10-16T06:29:26;14.60;99.90
3756;DHT22;1893;52.526;13.360;2022-10-16T06:31:51;14.60;99.90
3756;DHT22;1893;52.526;13.360;2022-10-16T06:34:18;14.60;99.90
3756;DHT22;1893;52.526;13.360;2022-10-16T06:36:43;14.70;99.90
3756;DHT22;1893;52.526;13.360;2022-10-16T06:39:09;14.70;99.90
3756;DHT22;1893;52.526;13.360;2022-10-16T06:41:34;14.70;99.90
3756;DHT22;1893;52.526;13.360;2022-10-16T06:44:00;14.70;99.90
3756;DHT22;1893;52.526;13.360;2022-10-16T06:46:26;14.70;99.90
3756;DHT22;1893;52.526;13.360;2022-10-16T06:48:55;14.80;99.90
3756;DHT22;1893;52.526;13.360;2022-10-16T06:51:22;14.80;99.90
3756;DHT22;1893;52.526;13.360;2022-10-16T06:53:50;14.80;99.90
3756;DHT22;1893;52.526;13.360;2022-10-16T06:56:21;14.80;99.90
3756;DHT22;1893;52.526;13.360;2022-10-16T06:58:48;14.80;99.90
3756;DHT22;1893;52.526;13.360;2022-10-16T07:01:14;14.90;99.90
3756;DHT22;1893;52.526;13.360;2022-10-16T07:03:41;14.90;99.90
3756;DHT22;1893;52.526;13.360;2022-10-16T07:06:09;15.00;99.90
3756;DHT22;1893;52.526;13.360;2022-10-16T07:08:37;15.10;99.90
3756;DHT22;1893;52.526;13.360;2022-10-16T07:11:08;15.20;99.90
3756;DHT22;1893;52.526;13.360;2022-10-16T07:13:38;15.30;99.90
3756;DHT22;1893;52.526;13.360;2022-10-16T07:16:05;15.40;99.90
3756;DHT22;1893;52.526;13.360;2022-10-16T07:18:32;15.60;99.90
3756;DHT22;1893;52.526;13.360;2022-10-16T07:21:11;15.60;99.90
3756;DHT22;1893;52.526;13.360;2022-10-16T07:23:37;15.60;99.90
3756;DHT22;1893;52.526;13.360;2022-10-16T07:26:04;15.60;99.90
3756;DHT22;1893;52.526;13.360;2022-10-16T07:28:30;15.70;99.90
3756;DHT22;1893;52.526;13.360;2022-10-16T07:31:00;15.70;99.90
3756;DHT22;1893;52.526;13.360;2022-10-16T07:33:26;15.90;99.90
3756;DHT22;1893;52.526;13.360;2022-10-16T07:35:53;16.00;99.90
3756;DHT22;1893;52.526;13.360;2022-10-16T07:38:19;16.10;99.90
3756;DHT22;1893;52.526;13.360;2022-10-16T07:40:45;16.10;99.90
3756;DHT22;1893;52.526;13.360;2022-10-16T07:43:11;16.10;99.90
3756;DHT22;1893;52.526;13.360;2022-10-16T07:45:36;16.10;99.90
3756;DHT22;1893;52.526;13.360;2022-10-16T07:48:02;16.20;99.90
3756;DHT22;1893;52.526;13.360;2022-10-16T07:50:28;16.20;99.90
3756;DHT22;1893;52.526;13.360;2022-10-16T07:52:53;16.20;99.90
3756;DHT22;1893;52.526;13.360;2022-10-16T07:55:19;16.30;99.90
3756;DHT22;1893;52.526;13.360;2022-10-16T07:57:44;16.20;99.90
3756;DHT22;1893;52.526;13.360;2022-10-16T08:00:10;16.20;99.90
3756;DHT22;1893;52.526;13.360;2022-10-16T08:02:42;16.20;99.90
3756;DHT22;1893;52.526;13.360;2022-10-16T08:05:08;16.30;99.90
3756;DHT22;1893;52.526;13.360;2022-10-16T08:07:33;16.30;99.90
3756;DHT22;1893;52.526;13.360;2022-10-16T08:09:59;16.30;99.90
3756;DHT22;1893;52.526;13.360;2022-10-16T08:12:25;16.40;99.90
3756;DHT22;1893;52.526;13.360;2022-10-16T08:14:51;16.40;99.90
3756;DHT22;1893;52.526;13.360;2022-10-16T08:17:16;16.50;99.90
3756;DHT22;1893;52.526;13.360;2022-10-16T08:19:47;16.50;99.90
3756;DHT22;1893;52.526;13.360;2022-10-16T08:22:15;16.60;99.90
3756;DHT22;1893;52.526;13.360;2022-10-16T08:24:41;16.60;99.90
3756;DHT22;1893;52.526;13.360;2022-10-16T08:27:07;16.70;99.90
3756;DHT22;1893;52.526;13.360;2022-10-16T08:29:34;16.80;99.90
3756;DHT22;1893;52.526;13.360;2022-10-16T08:32:00;16.80;99.90
3756;DHT22;1893;52.526;13.360;2022-10-16T08:34:25;16.90;99.90
3756;DHT22;1893;52.526;13.360;2022-10-16T08:36:53;16.90;99.90
3756;DHT22;1893;52.526;13.360;2022-10-16T08:39:19;17.00;99.90
3756;DHT22;1893;52.526;13.360;2022-10-16T08:41:56;16.90;99.90
3756;DHT22;1893;52.526;13.360;2022-10-16T08:44:45;16.90;99.90
3756;DHT22;1893;52.526;13.360;2022-10-16T08:47:20;17.00;99.90
3756;DHT22;1893;52.526;13.360;2022-10-16T08:49:57;17.10;99.90
3756;DHT22;1893;52.526;13.360;2022-10-16T08:52:28;17.10;99.90
3756;DHT22;1893;52.526;13.360;2022-10-16T08:54:55;17.10;99.90
3756;DHT22;1893;52.526;13.360;2022-10-16T08:57:24;17.10;99.90
3756;DHT22;1893;52.526;13.360;2022-10-16T08:59:52;17.10;99.90
3756;DHT22;1893;52.526;13.360;2022-10-16T09:02:38;17.10;99.90
3756;DHT22;1893;52.526;13.360;2022-10-16T09:13:23;18.00;99.90
3756;DHT22;1893;52.526;13.360;2022-10-16T09:16:01;18.10;99.90
3756;DHT22;1893;52.526;13.360;2022-10-16T09:18:52;18.40;15.30
3756;DHT22;1893;52.526;13.360;2022-10-16T09:21:24;18.80;1.00
3756;DHT22;1893;52.526;13.360;2022-10-16T09:23:51;18.60;1.00
3756;DHT22;1893;52.526;13.360;2022-10-16T09:26:17;18.50;1.00
3756;DHT22;1893;52.526;13.360;2022-10-16T09:28:44;18.60;1.00
3756;DHT22;1893;52.526;13.360;2022-10-16T09:31:18;18.90;1.00
3756;DHT22;1893;52.526;13.360;2022-10-16T09:33:47;19.00;1.00
3756;DHT22;1893;52.526;13.360;2022-10-16T09:36:13;19.30;1.00
3756;DHT22;1893;52.526;13.360;2022-10-16T09:38:39;19.50;1.00
3756;DHT22;1893;52.526;13.360;2022-10-16T09:41:21;19.80;99.90
3756;DHT22;1893;52.526;13.360;2022-10-16T09:43:56;19.80;99.90
3756;DHT22;1893;52.526;13.360;2022-10-16T09:46:29;20.50;1.00
3756;DHT22;1893;52.526;13.360;2022-10-16T09:49:01;21.00;1.00
3756;DHT22;1893;52.526;13.360;2022-10-16T09:54:16;20.50;1.00
3756;DHT22;1893;52.526;13.360;2022-10-16T09:56:42;19.80;1.00
3756;DHT22;1893;52.526;13.360;2022-10-16T09:59:12;20.10;21.60
3756;DHT22;1893;52.526;13.360;2022-10-16T10:01:47;20.20;1.00
3756;DHT22;1893;52.526;13.360;2022-10-16T10:04:13;20.80;99.90
3756;DHT22;1893;52.526;13.360;2022-10-16T10:06:51;22.20;1.00
3756;DHT22;1893;52.526;13.360;2022-10-16T10:09:33;23.00;99.90
3756;DHT22;1893;52.526;13.360;2022-10-16T10:12:03;22.10;1.00
3756;DHT22;1893;52.526;13.360;2022-10-16T10:14:36;21.00;99.90
3756;DHT22;1893;52.526;13.360;2022-10-16T10:17:21;19.90;1.00
3756;DHT22;1893;52.526;13.360;2022-10-16T10:20:13;19.60;1.00
3756;DHT22;1893;52.526;13.360;2022-10-16T10:22:44;19.40;99.90
3756;DHT22;1893;52.526;13.360;2022-10-16T10:27:58;18.80;99.90
3756;DHT22;1893;52.526;13.360;2022-10-16T10:42:11;19.00;99.90
3756;DHT22;1893;52.526;13.360;2022-10-16T10:52:58;20.10;1.00
3756;DHT22;1893;52.526;13.360;2022-10-16T10:55:44;20.20;99.90
3756;DHT22;1893;52.526;13.360;2022-10-16T10:58:35;20.90;99.90
3756;DHT22;1893;52.526;13.360;2022-10-16T11:07:03;21.70;99.90
3756;DHT22;1893;52.526;13.360;2022-10-16T11:09:38;21.50;1.00
3756;DHT22;1893;52.526;13.360;2022-10-16T11:12:12;21.20;1.00
3756;DHT22;1893;52.526;13.360;2022-10-16T11:15:04;21.10;99.90
3756;DHT22;1893;52.526;13.360;2022-10-16T11:20:27;20.70;32.70
3756;DHT22;1893;52.526;13.360;2022-10-16T11:25:42;20.40;1.00
3756;DHT22;1893;52.526;13.360;2022-10-16T11:28:18;20.60;1.00
3756;DHT22;1893;52.526;13.360;2022-10-16T11:34:03;20.50;1.00
3756;DHT22;1893;52.526;13.360;2022-10-16T11:39:31;20.50;1.00
3756;DHT22;1893;52.526;13.360;2022-10-16T11:42:13;20.50;1.00
3756;DHT22;1893;52.526;13.360;2022-10-16T11:47:27;21.20;1.00
3756;DHT22;1893;52.526;13.360;2022-10-16T11:50:01;21.40;99.90
3756;DHT22;1893;52.526;13.360;2022-10-16T11:53:11;21.20;99.90
3756;DHT22;1893;52.526;13.360;2022-10-16T11:55:43;20.70;99.90
3756;DHT22;1893;52.526;13.360;2022-10-16T12:00:47;20.10;1.00
3756;DHT22;1893;52.526;13.360;2022-10-16T12:03:36;19.90;1.00
3756;DHT22;1893;52.526;13.360;2022-10-16T12:06:34;19.70;1.00
3756;DHT22;1893;52.526;13.360;2022-10-16T12:09:01;19.70;1.00
3756;DHT22;1893;52.526;13.360;2022-10-16T12:11:36;20.00;1.00
3756;DHT22;1893;52.526;13.360;2022-10-16T12:17:00;20.80;36.60
3756;DHT22;1893;52.526;13.360;2022-10-16T12:19:29;21.20;1.00
3756;DHT22;1893;52.526;13.360;2022-10-16T12:22:00;21.20;1.00
3756;DHT22;1893;52.526;13.360;2022-10-16T12:24:38;21.70;1.00
3756;DHT22;1893;52.526;13.360;2022-10-16T12:27:16;22.20;1.00
3756;DHT22;1893;52.526;13.360;2022-10-16T12:29:45;22.00;1.00
3756;DHT22;1893;52.526;13.360;2022-10-16T12:32:30;22.50;1.00
3756;DHT22;1893;52.526;13.360;2022-10-16T12:34:57;23.00;1.00
3756;DHT22;1893;52.526;13.360;2022-10-16T12:37:34;23.50;1.00
3756;DHT22;1893;52.526;13.360;2022-10-16T12:40:23;23.80;1.00
3756;DHT22;1893;52.526;13.360;2022-10-16T12:42:50;23.00;1.00
3756;DHT22;1893;52.526;13.360;2022-10-16T12:45:26;22.90;1.00
3756;DHT22;1893;52.526;13.360;2022-10-16T12:47:54;22.40;1.00
3756;DHT22;1893;52.526;13.360;2022-10-16T12:50:25;22.20;1.00
3756;DHT22;1893;52.526;13.360;2022-10-16T12:52:51;22.70;1.00
3756;DHT22;1893;52.526;13.360;2022-10-16T12:55:19;22.50;1.00
3756;DHT22;1893;52.526;13.360;2022-10-16T12:58:09;22.80;1.00
3756;DHT22;1893;52.526;13.360;2022-10-16T13:00:46;22.70;1.00
3756;DHT22;1893;52.526;13.360;2022-10-16T13:09:22;23.20;1.00
3756;DHT22;1893;52.526;13.360;2022-10-16T13:17:30;25.20;1.00
3756;DHT22;1893;52.526;13.360;2022-10-16T13:20:21;24.30;1.00
3756;DHT22;1893;52.526;13.360;2022-10-16T13:23:00;23.80;1.00
3756;DHT22;1893;52.526;13.360;2022-10-16T13:28:30;23.20;1.00
3756;DHT22;1893;52.526;13.360;2022-10-16T13:30:59;22.10;1.00
3756;DHT22;1893;52.526;13.360;2022-10-16T13:33:41;21.70;1.00
3756;DHT22;1893;52.526;13.360;2022-10-16T13:37:01;21.40;1.00
3756;DHT22;1893;52.526;13.360;2022-10-16T13:39:27;21.30;1.00
3756;DHT22;1893;52.526;13.360;2022-10-16T13:42:06;21.50;1.00
3756;DHT22;1893;52.526;13.360;2022-10-16T13:44:41;21.60;1.00
3756;DHT22;1893;52.526;13.360;2022-10-16T13:47:19;21.60;1.00
3756;DHT22;1893;52.526;13.360;2022-10-16T13:49:45;21.70;1.00
3756;DHT22;1893;52.526;13.360;2022-10-16T13:52:19;21.70;1.00
3756;DHT22;1893;52.526;13.360;2022-10-16T13:54:45;21.70;1.00
3756;DHT22;1893;52.526;13.360;2022-10-16T13:57:15;22.10;1.00
3756;DHT22;1893;52.526;13.360;2022-10-16T13:59:41;22.60;1.00
3756;DHT22;1893;52.526;13.360;2022-10-16T14:04:48;22.20;1.00
3756;DHT22;1893;52.526;13.360;2022-10-16T14:07:26;22.40;1.00
3756;DHT22;1893;52.526;13.360;2022-10-16T14:09:53;22.20;1.00
3756;DHT22;1893;52.526;13.360;2022-10-16T14:12:21;21.90;1.00
3756;DHT22;1893;52.526;13.360;2022-10-16T14:14:52;21.10;1.00
3756;DHT22;1893;52.526;13.360;2022-10-16T14:17:23;20.90;1.00
3756;DHT22;1893;52.526;13.360;2022-10-16T14:19:51;20.70;1.00
3756;DHT22;1893;52.526;13.360;2022-10-16T14:22:39;20.70;1.00
3756;DHT22;1893;52.526;13.360;2022-10-16T14:25:33;20.50;1.00
3756;DHT22;1893;52.526;13.360;2022-10-16T14:28:15;20.40;1.00
3756;DHT22;1893;52.526;13.360;2022-10-16T14:30:57;20.40;1.00
3756;DHT22;1893;52.526;13.360;2022-10-16T14:33:33;20.40;1.00
3756;DHT22;1893;52.526;13.360;2022-10-16T14:36:01;20.40;1.00
3756;DHT22;1893;52.526;13.360;2022-10-16T14:38:26;20.30;1.00
3756;DHT22;1893;52.526;13.360;2022-10-16T14:40:52;20.20;1.00
3756;DHT22;1893;52.526;13.360;2022-10-16T14:43:41;20.10;1.00
3756;DHT22;1893;52.526;13.360;2022-10-16T14:46:15;20.10;1.00
3756;DHT22;1893;52.526;13.360;2022-10-16T14:48:50;20.00;1.00
3756;DHT22;1893;52.526;13.360;2022-10-16T14:51:17;20.00;1.00
3756;DHT22;1893;52.526;13.360;2022-10-16T14:53:43;20.00;1.00
3756;DHT22;1893;52.526;13.360;2022-10-16T14:56:16;19.90;1.00
3756;DHT22;1893;52.526;13.360;2022-10-16T14:58:42;19.90;1.00
3756;DHT22;1893;52.526;13.360;2022-10-16T15:01:09;19.90;1.00
3756;DHT22;1893;52.526;13.360;2022-10-16T15:03:36;19.90;1.00
3756;DHT22;1893;52.526;13.360;2022-10-16T15:06:01;19.80;1.00
3756;DHT22;1893;52.526;13.360;2022-10-16T15:08:27;19.70;1.00
3756;DHT22;1893;52.526;13.360;2022-10-16T15:10:53;19.70;1.00
3756;DHT22;1893;52.526;13.360;2022-10-16T15:13:18;19.60;1.00
3756;DHT22;1893;52.526;13.360;2022-10-16T15:15:45;19.60;1.00
3756;DHT22;1893;52.526;13.360;2022-10-16T15:18:11;19.50;1.00
3756;DHT22;1893;52.526;13.360;2022-10-16T15:20:38;19.50;1.00
3756;DHT22;1893;52.526;13.360;2022-10-16T15:23:22;19.50;1.00
3756;DHT22;1893;52.526;13.360;2022-10-16T15:28:16;19.30;1.00
3756;DHT22;1893;52.526;13.360;2022-10-16T15:30:42;19.30;1.00
3756;DHT22;1893;52.526;13.360;2022-10-16T15:33:18;19.20;1.00
3756;DHT22;1893;52.526;13.360;2022-10-16T15:35:48;19.10;1.00
3756;DHT22;1893;52.526;13.360;2022-10-16T15:38:15;19.10;1.00
3756;DHT22;1893;52.526;13.360;2022-10-16T15:40:41;19.00;1.00
3756;DHT22;1893;52.526;13.360;2022-10-16T15:43:07;18.90;1.00
3756;DHT22;1893;52.526;13.360;2022-10-16T15:45:33;18.90;1.00
3756;DHT22;1893;52.526;13.360;2022-10-16T15:47:58;18.70;1.00
3756;DHT22;1893;52.526;13.360;2022-10-16T15:50:24;18.60;1.00
3756;DHT22;1893;52.526;13.360;2022-10-16T15:52:50;18.70;1.00
3756;DHT22;1893;52.526;13.360;2022-10-16T15:55:16;18.60;1.00
3756;DHT22;1893;52.526;13.360;2022-10-16T15:57:44;18.50;1.00
3756;DHT22;1893;52.526;13.360;2022-10-16T16:00:14;18.50;1.00
3756;DHT22;1893;52.526;13.360;2022-10-16T16:02:41;18.30;99.90
3756;DHT22;1893;52.526;13.360;2022-10-16T16:05:08;18.30;92.50
3756;DHT22;1893;52.526;13.360;2022-10-16T16:07:38;18.20;99.90
3756;DHT22;1893;52.526;13.360;2022-10-16T16:10:05;18.10;99.90
3756;DHT22;1893;52.526;13.360;2022-10-16T16:12:33;18.00;99.90
3756;DHT22;1893;52.526;13.360;2022-10-16T16:14:59;17.90;99.90
3756;DHT22;1893;52.526;13.360;2022-10-16T16:17:24;17.70;1.00
3756;DHT22;1893;52.526;13.360;2022-10-16T16:19:50;17.60;99.90
3756;DHT22;1893;52.526;13.360;2022-10-16T16:22:16;17.50;1.00
3756;DHT22;1893;52.526;13.360;2022-10-16T16:24:42;17.40;1.00
3756;DHT22;1893;52.526;13.360;2022-10-16T16:27:08;17.20;1.00
3756;DHT22;1893;52.526;13.360;2022-10-16T16:29:33;17.10;99.90
3756;DHT22;1893;52.526;13.360;2022-10-16T16:32:00;17.10;1.00
3756;DHT22;1893;52.526;13.360;2022-10-16T16:34:27;17.10;22.60
3756;DHT22;1893;52.526;13.360;2022-10-16T16:36:53;17.10;1.00
3756;DHT22;1893;52.526;13.360;2022-10-16T16:39:19;17.00;1.00
3756;DHT22;1893;52.526;13.360;2022-10-16T16:41:45;16.80;99.90
3756;DHT22;1893;52.526;13.360;2022-10-16T16:44:14;16.70;99.90
3756;DHT22;1893;52.526;13.360;2022-10-16T16:46:41;16.60;1.00
3756;DHT22;1893;52.526;13.360;2022-10-16T16:49:10;16.50;1.00
3756;DHT22;1893;52.526;13.360;2022-10-16T16:51:36;16.40;1.00
3756;DHT22;1893;52.526;13.360;2022-10-16T16:54:02;16.30;32.80
3756;DHT22;1893;52.526;13.360;2022-10-16T16:56:28;16.20;99.90
3756;DHT22;1893;52.526;13.360;2022-10-16T16:58:55;16.10;99.90
3756;DHT22;1893;52.526;13.360;2022-10-16T17:01:22;16.10;1.00
3756;DHT22;1893;52.526;13.360;2022-10-16T17:03:50;16.10;1.00
3756;DHT22;1893;52.526;13.360;2022-10-16T17:06:18;16.00;1.00
3756;DHT22;1893;52.526;13.360;2022-10-16T17:08:44;16.00;1.00
3756;DHT22;1893;52.526;13.360;2022-10-16T17:11:21;16.00;1.00
3756;DHT22;1893;52.526;13.360;2022-10-16T17:13:47;15.90;1.00
3756;DHT22;1893;52.526;13.360;2022-10-16T17:16:13;15.80;54.90
3756;DHT22;1893;52.526;13.360;2022-10-16T17:18:39;15.80;99.90
3756;DHT22;1893;52.526;13.360;2022-10-16T17:21:07;15.60;99.90
3756;DHT22;1893;52.526;13.360;2022-10-16T17:23:34;15.50;99.90
3756;DHT22;1893;52.526;13.360;2022-10-16T17:26:14;15.40;99.90
3756;DHT22;1893;52.526;13.360;2022-10-16T17:28:40;15.40;1.00
3756;DHT22;1893;52.526;13.360;2022-10-16T17:31:19;15.30;1.00
3756;DHT22;1893;52.526;13.360;2022-10-16T17:33:45;15.20;1.00
3756;DHT22;1893;52.526;13.360;2022-10-16T17:36:11;15.10;1.00
3756;DHT22;1893;52.526;13.360;2022-10-16T17:38:39;15.10;1.00